Airfield :
LOGIN :

Register | Disclaimer

   EN    FR    IT 

 










Legend :    VFR   Marginal VFR   IFR   Intensive IFR   Very Intensive IFR
Visi :
Ceiling :
>= 8 km
>= 3000ft
5 to 8 km
1000 to 3000 ft
1500m to 5 km
500 to 1000 ft
800 to 1500m
200 to 500 ft
< 800m
< 200 ft
Symbols :   Thunderstorms  Fog  Heavy snow  Heavy precipitations  Wind > 20 kt
SIGMETs :     Misc.  Thunderstorms  Icing  Turbulence  Mountain Waves  Volcanic Ashes







- Airport Elevation : 277 ft
- IATA code : JER
- Download approach charts


EGJJ - Jersey

CURRENT METAR :
  • 150150Z AUTO 15018KT 9999 BKN015/// BKN021/// BKN049/// 03/01 Q1017

EXPIRED METARs :
  • 150120Z AUTO 15020KT 9999 OVC014/// 04/00 Q1017
  • 150050Z AUTO 15019KT 9999 OVC015/// 04/01 Q1018
  • 150020Z AUTO 15020KT 9999 BKN020/// 03/00 Q1018
  • 142350Z AUTO 15022KT 9999 NCD 03/00 Q1018
  • 142320Z AUTO 15022KT 9999 FEW025/// 03/M00 Q1019

TAF AMD TAF EGJJ
Valid from the 15 at 01:00 until the 15 at 09:00 UTC


150145Z 1501/1509 15020KT 9999 OVC014
BECMG 1503/1506 15022G32KT 8000 -RA SCT006 BKN012
TEMPO 1503/1506 2000 RADZ BKN006
BECMG 1506/1509 2000 RADZ BKN005
PROB40
TEMPO 1506/1509 16028G42KT 1200 +RADZ BKN002
ATIS : +44 1534 498 073
No reported NOTAMs for that airfield.



MET'MAP, your aeronautical weather chart ! - Copyright ORBIFLY December 2007 - Disclaimer

ORBIFLY MET'MAP TEAM :

Programming & Development : Alexandra Zaïnal
Concept & Development : Baudouin d'Aumeries
Co-Development & Prog : Marc-Olivier Méhu
Technical & hardware support : Manuel Goepfert

Contact : metmap@orbifly.com




SOURCES & CREDITS :

   NOAA